Latest Weather Observations for Lake Grace

IDW60801

Issued at 8:32 pm WST Saturday 20 December 2014 (issued every 30 minutes, with the page automatically refreshed every 10 minutes)

About weather observations | Map of weather stations | Latest weather observations for WA | Other Formats
Station Details ID: 010911 Name: LAKE GRACE Lat: -33.10 Lon: 118.46 Height: 286.0 m
Data from the previous 72 hours. | See also: Recent months at Lake Grace
Date/Time
WST
Temp
°C
App
Temp
°C
Dew
Point
Rel
Hum
%
Delta-T
°C
Wind Press
QNH
hPa
Press
MSL
hPa
Rain
since 9 am
mm
Dir
 
Spd
km/h
Gust
km/h
Spd
kts
Gust
kts
20/08:30pm 17.5 14.0 12.2 71 3.0 SSE 22 39 12 21 1013.9 1012.7 0.0
20/08:00pm 17.8 13.6 12.3 70 3.1 SSE 26 43 14 23 1013.6 1012.4 0.0
20/07:40pm 18.3 13.6 12.1 67 3.5 SSE 28 52 15 28 1013.5 1012.3 0.0
20/07:30pm 18.5 14.0 12.5 68 3.4 SSE 28 44 15 24 1013.3 1012.1 0.0
20/07:17pm 18.5 14.1 12.9 70 3.2 SSE 28 48 15 26 1013.2 1012.0 0.0
20/07:00pm 18.5 14.4 13.8 74 2.7 SSE 28 44 15 24 1012.7 1011.6 0.0
20/06:30pm 19.1 14.1 13.3 69 3.3 SSE 32 50 17 27 1012.4 1011.3 0.0
20/06:07pm 19.6 14.6 13.3 67 3.6 SSE 32 50 17 27 1011.9 1010.8 0.0
20/06:00pm 19.9 15.3 13.4 66 3.8 SSE 30 44 16 24 1011.8 1010.7 0.0
20/05:30pm 20.2 15.4 13.9 67 3.7 SSE 32 52 17 28 1011.3 1010.2 0.0
20/05:09pm 20.4 14.8 13.4 64 4.1 SSE 35 56 19 30 1010.7 1009.5 0.0
20/05:00pm 20.8 15.3 13.7 64 4.1 S 35 52 19 28 1010.5 1009.3 0.0
20/04:30pm 21.5 15.7 13.9 62 4.5 S 37 57 20 31 1009.9 1008.7 0.0
20/04:01pm 21.9 17.2 14.8 64 4.2 S 33 52 18 28 1009.6 1008.4 0.0
20/04:00pm 21.8 16.7 14.7 64 4.2 S 35 52 19 28 1009.6 1008.4 0.0
20/03:30pm 22.5 17.9 15.1 63 4.5 S 33 61 18 33 1009.1 1008.0 0.0
20/03:07pm 23.1 17.8 15.2 61 4.8 S 37 56 20 30 1008.7 1007.6 0.0
20/03:00pm 22.8 18.0 15.6 64 4.4 S 35 52 19 28 1008.7 1007.6 0.0
20/02:30pm 23.3 18.3 16.1 64 4.4 S 37 61 20 33 1008.5 1007.4 0.0
20/02:03pm 25.7 21.6 17.4 60 5.2 S 35 54 19 29 1007.5 1006.3 0.0
20/02:00pm 26.1 21.7 17.5 59 5.5 S 37 54 20 29 1007.4 1006.2 0.0
20/01:30pm 26.7 23.2 18.0 59 5.6 S 33 57 18 31 1007.2 1006.0 0.0
20/01:05pm 30.2 27.7 18.0 48 7.9 SSW 28 48 15 26 1006.2 1005.0 0.0
20/01:00pm 30.2 27.8 17.3 46 8.3 SSW 26 41 14 22 1006.2 1005.0 0.0
20/12:30pm 30.8 29.3 16.8 43 8.9 SW 20 39 11 21 1006.2 1005.0 0.0
20/12:00pm 29.0 27.8 16.2 46 8.1 SSW 17 24 9 13 1006.6 1005.4 0.0
20/11:30am 29.2 29.4 16.7 46 7.9 SSW 11 22 6 12 1006.6 1005.4 0.0
20/11:00am 29.3 29.2 16.1 44 8.3 SSW 11 20 6 11 1006.7 1005.5 0.0
20/10:30am 25.9 24.6 16.7 57 5.8 SSW 19 26 10 14 1007.5 1006.3 0.0
20/10:00am 24.4 22.8 16.1 60 5.1 SSW 19 32 10 17 1008.0 1006.8 0.0
20/09:30am 28.1 27.1 15.7 46 7.7 NNW 15 20 8 11 1007.9 1006.7 0.0
20/09:00am 29.0 28.9 15.9 45 8.2 N 11 20 6 11 1007.6 1006.4 0.0
20/08:30am 27.9 27.5 15.2 46 7.8 NE 11 19 6 10 1008.4 1007.3 0.0
20/08:00am 26.3 25.4 13.8 46 7.5 ENE 11 19 6 10 1008.9 1007.8 0.0
20/07:30am 23.6 23.2 12.9 51 6.2 E 7 11 4 6 1009.2 1008.1 0.0
20/07:00am 22.8 22.4 12.4 52 6.0 ENE 6 9 3 5 1009.4 1008.3 0.0
20/06:30am 22.9 22.8 12.2 51 6.1 SE 4 11 2 6 1009.6 1008.4 0.0
20/06:00am 20.6 20.0 11.8 57 5.0 ESE 6 13 3 7 1009.7 1008.5 0.0
20/05:30am 19.2 18.3 11.5 61 4.3 SE 7 11 4 6 1009.8 1008.6 0.0
20/05:00am 18.6 18.3 11.4 63 4.0 SE 4 11 2 6 1009.7 1008.5 0.0
20/04:30am 18.6 16.6 11.4 63 4.0 SE 13 19 7 10 1009.8 1008.6 0.0
20/04:00am 18.9 17.3 11.5 62 4.1 SSE 11 15 6 8 1009.8 1008.6 0.0
20/03:30am 19.2 17.6 11.5 61 4.3 SE 11 15 6 8 1009.8 1008.6 0.0
20/03:00am 19.4 17.4 11.4 60 4.5 SE 13 17 7 9 1010.1 1008.9 0.0
20/02:30am 19.8 18.9 11.3 58 4.7 S 7 11 4 6 1010.0 1008.8 0.0
20/02:00am 20.2 18.9 11.1 56 5.1 SSE 9 15 5 8 1010.0 1008.8 0.0
20/01:30am 20.2 18.7 10.6 54 5.3 SSE 9 17 5 9 1010.2 1009.0 0.0
20/01:00am 20.6 18.2 10.1 51 5.7 SE 13 19 7 10 1010.6 1009.4 0.0
20/12:30am 21.2 18.7 9.8 48 6.2 ESE 13 17 7 9 1010.7 1009.5 0.0
20/12:00am 21.5 18.2 9.7 47 6.4 E 17 24 9 13 1010.7 1009.5 0.0
 
Date/Time
WST
Temp
°C
App
Temp
°C
Dew
Point
Rel
Hum
%
Delta-T
°C
Wind Press
QNH
hPa
Press
MSL
hPa
Rain
since 9 am
mm
Dir
 
Spd
km/h
Gust
km/h
Spd
kts
Gust
kts
19/11:30pm 21.9 18.2 9.4 45 6.8 ESE 19 28 10 15 1011.0 1009.8 0.0
19/11:00pm 22.4 18.5 9.6 44 7.0 E 20 33 11 18 1011.7 1010.6 0.0
19/10:30pm 22.9 18.4 10.0 44 7.1 E 24 39 13 21 1011.4 1010.3 0.0
19/10:00pm 23.5 19.4 10.2 43 7.4 ESE 22 35 12 19 1012.0 1010.9 0.0
19/09:30pm 24.4 19.3 9.2 38 8.3 E 26 39 14 21 1011.6 1010.5 0.0
19/09:19pm 24.7 19.3 9.4 38 8.4 E 28 50 15 27 1011.8 1010.7 0.0
19/09:00pm 25.2 20.4 8.7 35 9.0 E 24 37 13 20 1011.7 1010.6 0.0
19/08:33pm 25.9 20.2 8.4 33 9.6 ESE 28 46 15 25 1010.6 1009.4 0.0
19/08:30pm 26.0 20.3 8.5 33 9.6 ESE 28 44 15 24 1010.6 1009.4 0.0
19/08:16pm 26.5 20.1 8.5 32 9.9 ESE 32 54 17 29 1010.4 1009.2 0.0
19/08:00pm 27.1 21.8 8.5 31 10.3 ESE 26 41 14 22 1010.3 1009.1 0.0
19/07:46pm 27.7 22.2 9.0 31 10.4 ESE 28 46 15 25 1010.2 1009.0 0.0
19/07:30pm 28.3 22.2 9.6 31 10.5 ESE 32 46 17 25 1010.1 1008.9 0.0
19/07:01pm 29.9 23.7 9.4 28 11.6 ESE 32 50 17 27 1009.8 1008.6 0.0
19/07:00pm 29.9 23.5 9.4 28 11.6 ESE 33 50 18 27 1009.8 1008.6 0.0
19/06:56pm 30.1 24.0 9.6 28 11.7 ESE 32 50 17 27 1009.7 1008.5 0.0
19/06:30pm 32.1 26.0 8.4 23 13.4 ESE 30 46 16 25 1009.2 1008.1 0.0
19/06:24pm 33.3 29.2 8.0 21 14.2 ESE 19 44 10 24 1009.2 1008.1 0.0
19/06:00pm 35.6 32.2 4.0 14 16.9 ESE 11 13 6 7 1008.9 1007.8 0.0
19/05:30pm 36.0 33.4 4.3 14 17.1 ESE 7 17 4 9 1009.0 1007.9 0.0
19/05:00pm 36.0 32.7 4.3 14 17.1 N 11 30 6 16 1009.2 1008.1 0.0
19/04:30pm 35.8 32.8 4.2 14 17.0 NW 9 15 5 8 1009.7 1008.5 0.0
19/04:00pm 36.7 32.5 3.8 13 17.7 N 15 26 8 14 1010.3 1009.1 0.0
19/03:30pm 36.6 33.1 3.7 13 17.6 NE 11 20 6 11 1010.8 1009.6 0.0
19/03:00pm 36.4 32.0 4.6 14 17.3 ENE 17 24 9 13 1011.4 1010.3 0.0
19/02:30pm 35.8 31.5 3.1 13 17.3 NNE 15 30 8 16 1011.9 1010.8 0.0
19/02:00pm 35.0 31.9 3.5 14 16.7 NNE 9 24 5 13 1012.3 1011.2 0.0
19/01:30pm 34.3 30.3 3.0 14 16.4 NW 13 20 7 11 1012.8 1011.7 0.0
19/01:00pm 34.4 30.4 3.1 14 16.4 NNE 13 30 7 16 1013.5 1012.3 0.0
19/12:30pm 33.3 30.1 5.0 17 15.2 E 11 20 6 11 1014.1 1012.9 0.0
19/12:00pm 33.3 29.7 5.0 17 15.2 NE 13 19 7 10 1014.6 1013.5 0.0
19/11:30am 32.5 28.9 6.7 20 14.2 NE 15 28 8 15 1015.2 1014.1 0.0
19/11:00am 31.5 28.2 6.5 21 13.6 ENE 13 24 7 13 1015.8 1014.7 0.0
19/10:30am 30.2 27.1 7.4 24 12.5 NE 13 20 7 11 1016.2 1015.1 0.0
19/10:00am 28.7 25.9 8.4 28 11.2 ENE 13 22 7 12 1016.6 1015.5 0.0
19/09:30am 27.1 24.4 9.0 32 10.0 ENE 13 20 7 11 1017.1 1015.9 0.0
19/09:00am 25.9 22.9 9.3 35 9.2 ENE 15 24 8 13 1017.4 1016.3 0.0
19/08:30am 24.1 21.4 10.4 42 7.7 NE 15 22 8 12 1017.8 1016.7 0.0
19/08:00am 22.5 20.2 10.6 47 6.6 ENE 13 20 7 11 1018.1 1017.0 0.0
19/07:30am 20.6 18.0 10.7 53 5.5 ENE 15 22 8 12 1018.1 1017.0 0.0
19/07:00am 19.3 16.7 10.8 58 4.7 ENE 15 22 8 12 1018.0 1016.9 0.0
19/06:30am 17.9 15.4 11.0 64 3.8 E 15 20 8 11 1017.9 1016.8 0.0
19/06:00am 16.7 15.6 10.5 67 3.3 ESE 7 15 4 8 1018.0 1016.9 0.0
19/05:30am 15.6 14.1 10.4 71 2.8 ESE 9 13 5 7 1017.6 1016.5 0.0
19/05:00am 15.2 14.0 10.4 73 2.6 SSE 7 11 4 6 1017.6 1016.5 0.0
19/04:30am 14.5 14.1 9.9 74 2.4 WNW 2 6 1 3 1017.2 1016.0 0.0
19/04:00am 14.1 12.9 9.7 75 2.3 S 6 11 3 6 1016.9 1015.7 0.0
19/03:30am 14.2 12.4 9.6 74 2.4 S 9 11 5 6 1016.9 1015.7 0.0
19/03:00am 14.3 12.8 9.3 72 2.6 SE 7 11 4 6 1016.9 1015.7 0.0
19/02:30am 14.7 12.5 9.5 71 2.7 ESE 11 17 6 9 1017.0 1015.8 0.0
19/02:00am 15.0 13.2 9.6 70 2.8 SE 9 13 5 7 1017.2 1016.0 0.0
19/01:30am 15.1 12.6 9.7 70 2.8 SE 13 17 7 9 1017.3 1016.2 0.0
19/01:00am 15.4 13.0 10.0 70 2.9 ESE 13 20 7 11 1017.7 1016.6 0.0
19/12:30am 15.7 13.3 10.0 69 3.0 E 13 17 7 9 1018.0 1016.9 0.0
19/12:00am 16.1 13.4 10.2 68 3.1 SE 15 20 8 11 1018.0 1016.9 0.0
 
Date/Time
WST
Temp
°C
App
Temp
°C
Dew
Point
Rel
Hum
%
Delta-T
°C
Wind Press
QNH
hPa
Press
MSL
hPa
Rain
since 9 am
mm
Dir
 
Spd
km/h
Gust
km/h
Spd
kts
Gust
kts
18/11:30pm 16.5 14.2 10.6 68 3.2 SE 13 20 7 11 1018.1 1017.0 0.0
18/11:00pm 16.9 14.3 10.7 67 3.4 SSE 15 24 8 13 1018.0 1016.9 0.0
18/10:30pm 17.6 15.0 10.7 64 3.8 SE 15 24 8 13 1018.2 1017.1 0.0
18/10:00pm 18.3 14.9 11.1 63 4.0 ESE 20 33 11 18 1017.7 1016.6 0.0
18/09:30pm 19.1 14.9 11.2 60 4.4 ESE 24 35 13 19 1017.4 1016.3 0.0
18/09:00pm 20.2 16.4 11.1 56 5.0 ESE 22 35 12 19 1017.3 1016.2 0.0
18/08:30pm 21.2 16.6 11.0 52 5.7 ESE 26 39 14 21 1016.9 1015.7 0.0
18/08:00pm 22.6 18.3 10.7 47 6.6 ESE 24 37 13 20 1016.7 1015.6 0.0
18/07:30pm 23.8 19.1 10.8 44 7.3 ESE 26 33 14 18 1016.4 1015.3 0.0
18/07:00pm 25.7 20.4 9.9 37 8.8 ESE 28 43 15 23 1015.8 1014.7 0.0
18/06:30pm 29.0 24.8 1.5 17 13.6 ESE 13 19 7 10 1015.4 1014.3 0.0
18/06:00pm 29.5 24.8 1.1 16 14.0 ESE 15 24 8 13 1015.2 1014.1 0.0
18/05:30pm 29.7 25.4 1.2 16 14.1 E 13 20 7 11 1015.0 1013.9 0.0
18/05:00pm 30.1 25.5 1.5 16 14.2 E 15 26 8 14 1015.0 1013.9 0.0
18/04:30pm 29.7 25.4 1.2 16 14.1 E 13 20 7 11 1015.1 1014.0 0.0
18/04:00pm 29.8 25.5 1.3 16 14.1 E 13 26 7 14 1015.2 1014.1 0.0
18/03:30pm 29.2 24.5 0.8 16 13.9 ESE 15 24 8 13 1015.5 1014.4 0.0
18/03:00pm 29.0 23.9 0.7 16 13.8 ENE 17 24 9 13 1015.8 1014.7 0.0
18/02:30pm 29.0 25.0 3.1 19 13.1 ENE 13 26 7 14 1016.1 1015.0 0.0
18/02:00pm 27.5 23.5 2.6 20 12.4 SE 13 28 7 15 1016.5 1015.4 0.0
18/01:30pm 26.7 22.8 3.2 22 11.8 NE 13 19 7 10 1016.7 1015.6 0.0
18/01:00pm 26.6 22.5 4.4 24 11.3 E 15 24 8 13 1017.2 1016.0 0.0
18/12:30pm 26.3 22.6 4.7 25 11.1 E 13 22 7 12 1017.6 1016.5 0.0
18/12:00pm 25.1 21.5 4.8 27 10.3 ENE 13 20 7 11 1018.0 1016.9 0.0
18/11:30am 24.1 19.7 5.0 29 9.7 ENE 17 30 9 16 1018.4 1017.3 0.0
18/11:00am 23.1 19.3 6.0 33 8.8 ENE 15 28 8 15 1018.6 1017.5 0.0
18/10:30am 22.1 19.1 7.5 39 7.7 ENE 13 20 7 11 1018.9 1017.8 0.0
18/10:00am 21.2 18.7 8.1 43 6.9 E 11 20 6 11 1019.1 1018.0 0.0
18/09:30am 19.8 16.9 8.2 47 6.1 E 13 22 7 12 1019.1 1018.0 0.0
18/09:00am 19.2 16.4 8.5 50 5.6 ENE 13 19 7 10 1019.3 1018.2 0.0
18/08:30am 18.5 15.9 9.3 55 4.9 E 13 19 7 10 1019.4 1018.3 0.0
18/08:00am 17.3 14.4 9.7 61 4.0 ESE 15 22 8 12 1019.5 1018.4 0.0
18/07:30am 16.1 13.0 10.2 68 3.2 ESE 17 26 9 14 1019.4 1018.3 0.0
18/07:00am 14.8 12.7 9.8 72 2.6 ESE 11 17 6 9 1019.3 1018.2 0.0
18/06:30am 13.5 11.3 9.4 76 2.1 E 11 17 6 9 1019.0 1017.9 0.0
18/06:00am 12.7 10.9 9.3 80 1.7 E 9 15 5 8 1018.6 1017.5 0.0
18/05:30am 11.5 11.0 9.2 86 1.2 ESE 2 9 1 5 1018.4 1017.3 0.0
18/05:00am 9.9 9.4 7.8 87 1.0 CALM 0 0 0 0 1018.0 1016.9 0.0
18/04:30am 10.0 9.5 7.8 86 1.1 CALM 0 0 0 0 1017.6 1016.5 0.0
18/04:00am 10.4 8.8 8.0 85 1.2 SE 6 9 3 5 1017.2 1016.0 0.0
18/03:30am 10.7 8.9 8.1 84 1.3 SE 7 9 4 5 1016.7 1015.6 0.0
18/03:00am 10.9 8.8 8.1 83 1.4 SE 9 11 5 6 1016.7 1015.6 0.0
18/02:30am 11.3 9.2 8.2 81 1.5 SE 9 13 5 7 1016.6 1015.5 0.0
18/02:00am 11.7 9.6 8.4 80 1.7 SE 9 13 5 7 1016.5 1015.4 0.0
18/01:30am 12.2 9.8 8.5 78 1.9 SSE 11 15 6 8 1016.6 1015.5 0.0
18/01:00am 12.6 9.8 8.7 77 2.0 SSE 13 20 7 11 1016.6 1015.5 0.0
18/12:30am 13.0 10.2 8.7 75 2.2 SE 13 19 7 10 1016.6 1015.5 0.0
18/12:00am 13.4 10.7 8.9 74 2.3 SE 13 20 7 11 1016.7 1015.6 0.0
 
Date/Time
WST
Temp
°C
App
Temp
°C
Dew
Point
Rel
Hum
%
Delta-T
°C
Wind Press
QNH
hPa
Press
MSL
hPa
Rain
since 9 am
mm
Dir
 
Spd
km/h
Gust
km/h
Spd
kts
Gust
kts
17/11:30pm 13.9 10.1 8.9 72 2.6 SE 19 24 10 13 1016.7 1015.6 0.0
17/11:00pm 14.3 10.4 9.3 72 2.6 SE 20 30 11 16 1016.7 1015.6 0.0
17/10:30pm 15.0 10.8 9.8 71 2.7 SE 22 37 12 20 1016.5 1015.4 0.0
17/10:00pm 15.6 11.0 9.7 68 3.1 SE 24 35 13 19 1016.3 1015.2 0.0
17/09:30pm 16.3 12.4 9.3 63 3.7 SE 20 28 11 15 1015.9 1014.8 0.0
17/09:00pm 17.0 12.7 9.4 61 4.0 SE 22 33 12 18 1015.5 1014.4 0.0

Other Formats:

Comma delimited format used in spreadsheet applications
http://www.bom.gov.au/fwo/IDW60801/IDW60801.95637.axf

JavaScript Object Notation format (JSON) in row-major order
http://www.bom.gov.au/fwo/IDW60801/IDW60801.95637.json